Time;durP1;ratioP1;P1;durP2;ratioP2;P2;SDS_P1;SDS_P2;PMS_P1;PMS_P2;Temp;Humidity;BMP_temperature;BMP_pressure;BME280_temperature;BME280_humidity;BME280_pressure;Samples;Min_cycle;Max_cycle;Signal;HPM_P1;HPM_P2
2023/03/04 00:01:41;;;;;;;;;69.75;53.50;;;;;6.83;58.60;99648.94;5095588;27;46533;-79
2023/03/04 00:04:07;;;;;;;;;71.25;51.50;;;;;6.85;58.72;99647.16;5095248;27;45301;-79
2023/03/04 00:06:32;;;;;;;;;72.50;55.25;;;;;6.87;58.25;99651.44;5094315;27;45390;-79
2023/03/04 00:09:04;;;;;;;;;74.00;57.50;;;;;6.89;58.50;99654.91;5094044;27;45578;-79
2023/03/04 00:11:31;;;;;;;;;72.50;56.00;;;;;6.90;58.43;99656.66;5094860;27;46269;-80
2023/03/04 00:13:56;;;;;;;;;71.75;56.50;;;;;6.93;58.33;99650.50;5093946;27;45385;-80
2023/03/04 00:16:26;;;;;;;;;78.00;57.00;;;;;6.96;58.43;99663.56;5093915;27;45330;-79
2023/03/04 00:18:55;;;;;;;;;71.33;55.00;;;;;6.97;58.25;99657.41;5093928;27;45377;-79
2023/03/04 00:21:20;;;;;;;;;71.67;54.00;;;;;6.99;58.87;99661.75;5095042;27;46250;-80
2023/03/04 00:23:46;;;;;;;;;74.67;57.33;;;;;7.02;58.42;99658.22;5093873;27;45370;-79
2023/03/04 00:26:12;;;;;;;;;72.00;52.33;;;;;7.02;58.30;99663.47;5093409;27;45341;-80
2023/03/04 00:28:39;;;;;;;;;70.25;53.00;;;;;7.04;58.84;99661.66;5094665;27;45441;-79
2023/03/04 00:31:08;;;;;;;;;74.75;55.50;;;;;7.06;58.56;99654.63;5098405;27;45517;-80
2023/03/04 00:33:34;;;;;;;;;73.50;55.25;;;;;7.09;58.47;99665.06;5098790;27;45330;-79
2023/03/04 00:35:59;;;;;;;;;70.50;55.75;;;;;7.10;58.20;99656.31;5114893;27;45438;-79
2023/03/04 00:38:25;;;;;;;;;72.25;55.75;;;;;7.08;58.24;99665.09;5097615;27;45488;-79
2023/03/04 00:40:51;;;;;;;;;61.25;47.75;;;;;7.06;58.33;99659.88;5098088;27;45431;-79
2023/03/04 00:43:16;;;;;;;;;66.00;52.00;;;;;7.05;58.44;99655.50;5098711;27;45345;-79
2023/03/04 00:45:41;;;;;;;;;72.50;54.75;;;;;7.04;58.76;99651.16;5098727;27;45435;-80
2023/03/04 00:48:07;;;;;;;;;73.75;56.75;;;;;7.04;58.80;99651.16;5098366;27;45380;-79
2023/03/04 00:50:32;;;;;;;;;72.50;54.25;;;;;7.06;58.62;99654.63;5098179;27;45400;-79
2023/03/04 00:52:58;;;;;;;;;73.33;55.33;;;;;7.07;58.58;99648.50;5097958;27;45440;-80
2023/03/04 00:55:24;;;;;;;;;72.00;55.50;;;;;7.07;58.64;99651.13;5097759;27;45366;-80
2023/03/04 00:57:49;;;;;;;;;73.00;57.25;;;;;7.06;58.43;99641.50;5097719;27;45479;-79
2023/03/04 01:00:15;;;;;;;;;72.00;55.33;;;;;7.07;58.42;99640.63;5097319;27;46269;-79
2023/03/04 01:02:40;;;;;;;;;72.75;54.25;;;;;7.08;58.46;99646.72;5097791;27;45351;-79
2023/03/04 01:05:10;;;;;;;;;78.50;57.00;;;;;7.08;58.33;99638.88;5096666;27;45258;-79
2023/03/04 01:07:35;;;;;;;;;64.33;51.33;;;;;7.10;58.32;99639.72;5096492;27;45381;-80
2023/03/04 01:10:01;;;;;;;;;72.00;54.67;;;;;7.12;57.98;99633.56;5095613;27;46671;-79
2023/03/04 01:12:27;;;;;;;;;72.75;56.00;;;;;7.16;58.41;99631.75;5097350;27;45514;-79
2023/03/04 01:14:52;;;;;;;;;75.67;57.00;;;;;7.17;58.28;99628.25;5097116;27;45478;-80
2023/03/04 01:17:18;;;;;;;;;76.25;57.75;;;;;7.19;58.90;99629.94;5097123;27;45492;-79
2023/03/04 01:19:43;;;;;;;;;70.00;54.67;;;;;7.19;58.46;99627.31;5096788;27;46431;-79
2023/03/04 01:22:12;;;;;;;;;71.50;55.25;;;;;7.20;58.33;99625.56;5096207;27;45471;-79
2023/03/04 01:24:38;;;;;;;;;79.75;59.25;;;;;7.19;58.60;99619.47;5097899;27;45376;-79
2023/03/04 01:27:03;;;;;;;;;74.25;56.00;;;;;7.21;58.21;99622.88;5097809;27;45167;-79
2023/03/04 01:29:29;;;;;;;;;68.00;53.25;;;;;7.21;59.24;99617.63;5097667;27;45684;-79
2023/03/04 01:31:54;;;;;;;;;72.50;56.50;;;;;7.23;59.39;99617.63;5098007;27;45460;-79
2023/03/04 01:34:19;;;;;;;;;76.25;59.25;;;;;7.22;59.77;99613.25;5097694;27;45455;-79
2023/03/04 01:36:45;;;;;;;;;71.50;55.25;;;;;7.24;59.85;99616.72;5097596;27;45419;-80
2023/03/04 01:39:10;;;;;;;;;80.50;55.75;;;;;7.25;59.13;99616.69;5095903;27;46951;-79
2023/03/04 01:41:36;;;;;;;;;76.67;57.67;;;;;7.26;59.16;99615.81;5094513;27;45542;-80
2023/03/04 01:44:01;;;;;;;;;74.00;57.50;;;;;7.27;58.68;99619.28;5097008;27;45391;-79
2023/03/04 01:46:29;;;;;;;;;72.75;55.25;;;;;7.26;58.49;99615.81;5096748;27;45506;-79
2023/03/04 01:48:54;;;;;;;;;67.25;50.75;;;;;7.29;58.27;99612.25;5097005;27;45399;-79
2023/03/04 01:51:20;;;;;;;;;75.00;53.50;;;;;7.28;58.19;99608.78;5096167;27;45586;-80
2023/03/04 01:53:49;;;;;;;;;72.00;52.50;;;;;7.27;58.35;99599.19;5097674;27;45426;-79
2023/03/04 01:56:33;;;;;;;;;76.50;58.00;;;;;7.30;58.08;99611.38;5097264;27;45428;-78
2023/03/04 01:59:16;;;;;;;;;68.25;54.25;;;;;7.31;58.07;99602.63;5084830;27;45535;-80
2023/03/04 02:01:48;;;;;;;;;67.00;51.50;;;;;7.30;58.72;99601.75;5097369;27;45304;-80
2023/03/04 02:04:15;;;;;;;;;72.50;56.50;;;;;7.29;58.85;99602.63;5097404;27;45350;-79
2023/03/04 02:06:41;;;;;;;;;78.75;58.50;;;;;7.23;59.14;99607.13;5097029;27;45376;-79
2023/03/04 02:09:06;;;;;;;;;69.75;51.50;;;;;7.17;59.32;99604.63;5095316;27;46366;-79
2023/03/04 02:11:33;;;;;;;;;72.00;56.00;;;;;7.10;60.26;99606.50;5097016;27;45351;-79
2023/03/04 02:13:59;;;;;;;;;77.00;57.50;;;;;7.04;60.14;99600.53;5097360;27;45454;-79
2023/03/04 02:16:25;;;;;;;;;77.25;56.75;;;;;6.96;60.19;99601.50;5096875;27;45376;-80
2023/03/04 02:18:50;;;;;;;;;79.50;57.75;;;;;6.93;60.09;99595.44;5095626;27;46640;-80
2023/03/04 02:21:28;;;;;;;;;74.75;56.00;;;;;6.89;60.04;99596.38;5096250;27;45404;-79
2023/03/04 02:24:23;;;;;;;;;77.00;57.00;;;;;6.85;60.30;99594.75;5097343;27;45370;-79
2023/03/04 02:26:49;;;;;;;;;75.25;56.25;;;;;6.79;60.07;99598.31;5096666;27;45563;-80
2023/03/04 02:29:21;;;;;;;;;76.50;55.00;;;;;6.77;60.47;99596.59;5097126;27;46080;-77
2023/03/04 02:31:49;;;;;;;;;69.75;54.25;;;;;6.73;60.23;99600.16;5097191;27;45388;-79
2023/03/04 02:34:18;;;;;;;;;77.25;59.50;;;;;6.70;60.51;99603.72;5097237;27;45364;-79
2023/03/04 02:36:45;;;;;;;;;78.25;60.25;;;;;6.70;60.63;99598.50;5097008;27;45684;-79
2023/03/04 02:39:26;;;;;;;;;73.25;55.25;;;;;6.69;60.24;99594.13;5096758;27;46087;-79
2023/03/04 02:41:53;;;;;;;;;74.25;56.75;;;;;6.70;60.48;99584.53;5096652;27;45328;-79
2023/03/04 02:44:22;;;;;;;;;73.75;54.25;;;;;6.71;60.22;99587.09;5095417;27;45380;-79
2023/03/04 02:46:50;;;;;;;;;73.75;57.00;;;;;6.73;60.38;99582.69;5096312;27;45502;-80
2023/03/04 02:49:16;;;;;;;;;75.00;56.00;;;;;6.75;60.32;99590.53;5096671;27;46281;-79
2023/03/04 02:51:41;;;;;;;;;71.75;55.25;;;;;6.77;60.57;99581.75;5096211;27;45355;-79
2023/03/04 02:54:17;;;;;;;;;69.25;55.00;;;;;6.82;60.42;99576.44;5096344;27;45403;-79
2023/03/04 02:56:48;;;;;;;;;73.75;56.75;;;;;6.85;60.30;99577.25;5096014;27;45365;-79
2023/03/04 02:59:15;;;;;;;;;68.50;53.00;;;;;6.88;60.65;99577.19;5094028;27;47125;-79
2023/03/04 03:01:40;;;;;;;;;70.75;54.75;;;;;6.89;59.78;99575.41;5094737;27;45416;-80
2023/03/04 03:04:06;;;;;;;;;76.00;57.00;;;;;6.90;60.06;99572.78;5096654;27;45195;-80
2023/03/04 03:06:31;;;;;;;;;78.25;58.25;;;;;6.92;60.17;99572.75;5096385;27;45476;-79
2023/03/04 03:08:56;;;;;;;;;68.00;53.25;;;;;6.94;59.73;99569.22;5094826;27;47166;-80
2023/03/04 03:11:23;;;;;;;;;69.00;54.00;;;;;6.98;60.06;99572.66;5095837;27;45313;-79
2023/03/04 03:13:48;;;;;;;;;75.25;57.50;;;;;6.98;59.74;99572.66;5096202;27;45268;-79
2023/03/04 03:16:14;;;;;;;;;72.25;53.50;;;;;7.00;59.79;99571.72;5096397;27;45355;-79
2023/03/04 03:18:40;;;;;;;;;72.00;54.75;;;;;7.00;59.74;99569.13;5096346;27;45398;-79
2023/03/04 03:21:10;;;;;;;;;75.75;57.25;;;;;7.03;60.09;99570.81;5094619;27;45500;-80
2023/03/04 03:23:35;;;;;;;;;75.00;55.75;;;;;7.05;59.92;99565.53;5096250;27;45398;-79
2023/03/04 03:26:01;;;;;;;;;75.25;59.50;;;;;7.07;59.49;99564.59;5095764;27;45329;-79
2023/03/04 03:28:27;;;;;;;;;75.75;56.25;;;;;7.09;59.46;99567.19;5095813;27;46808;-79
2023/03/04 03:30:53;;;;;;;;;72.67;55.33;;;;;7.11;59.41;99566.28;5095492;27;45432;-79
2023/03/04 03:33:18;;;;;;;;;77.75;57.00;;;;;7.13;59.46;99569.75;5095694;27;45463;-79
2023/03/04 03:35:44;;;;;;;;;73.75;57.00;;;;;7.14;59.55;99574.09;5095800;27;45384;-79
2023/03/04 03:38:09;;;;;;;;;70.75;55.75;;;;;7.14;60.31;99573.22;5094319;27;48093;-79
2023/03/04 03:40:35;;;;;;;;;73.00;54.75;;;;;7.15;60.41;99569.72;5095544;27;45452;-79
2023/03/04 03:43:00;;;;;;;;;78.00;59.75;;;;;7.16;60.38;99574.94;5095942;27;45537;-79
2023/03/04 03:45:26;;;;;;;;;79.25;59.00;;;;;7.18;60.07;99575.78;5095777;27;45433;-79
2023/03/04 03:47:51;;;;;;;;;73.75;56.00;;;;;7.20;60.15;99579.22;5095562;27;46080;-80
2023/03/04 03:50:16;;;;;;;;;73.75;58.00;;;;;7.22;60.05;99573.94;5094038;27;45337;-79
2023/03/04 03:52:42;;;;;;;;;71.50;56.00;;;;;7.23;59.82;99581.78;5096041;27;45316;-79
2023/03/04 03:55:08;;;;;;;;;73.50;55.75;;;;;7.26;59.82;99578.22;5095349;27;45514;-80
2023/03/04 03:57:33;;;;;;;;;77.00;58.00;;;;;7.28;59.91;99585.19;5095582;27;46077;-79
2023/03/04 03:59:58;;;;;;;;;75.00;56.75;;;;;7.28;60.17;99574.69;5094644;27;45242;-79
2023/03/04 04:02:24;;;;;;;;;78.75;56.75;;;;;7.28;59.95;99577.31;5094202;27;45377;-79
2023/03/04 04:04:56;;;;;;;;;74.75;59.00;;;;;7.32;59.91;99575.50;5094100;27;45532;-79
2023/03/04 04:07:22;;;;;;;;;74.75;55.50;;;;;7.31;59.54;99579.88;5092985;27;46866;-79
2023/03/04 04:09:47;;;;;;;;;81.00;58.75;;;;;7.33;59.62;99579.84;5094125;27;45459;-79
2023/03/04 04:12:15;;;;;;;;;79.25;59.00;;;;;7.31;60.01;99576.38;5094975;27;45440;-80
2023/03/04 04:14:41;;;;;;;;;75.50;57.75;;;;;7.30;60.25;99579.91;5094870;27;45407;-79
2023/03/04 04:17:06;;;;;;;;;72.25;54.25;;;;;7.28;60.50;99573.81;5093943;27;46410;-80
2023/03/04 04:19:32;;;;;;;;;74.25;56.50;;;;;7.25;60.60;99577.38;5095083;27;45348;-78
2023/03/04 04:21:57;;;;;;;;;73.25;55.00;;;;;7.24;60.34;99578.25;5095442;27;45892;-78
2023/03/04 04:24:23;;;;;;;;;74.50;58.00;;;;;7.25;60.98;99579.13;5094814;27;45487;-80
2023/03/04 04:26:53;;;;;;;;;66.00;49.25;;;;;7.23;61.30;99581.78;5094558;27;45920;-78
2023/03/04 04:29:19;;;;;;;;;72.00;55.00;;;;;7.23;60.98;99589.63;5092923;27;45482;-80
2023/03/04 04:31:44;;;;;;;;;77.25;57.50;;;;;7.21;61.47;99587.94;5094031;27;45391;-80
2023/03/04 04:34:09;;;;;;;;;66.75;53.00;;;;;7.18;60.77;99590.63;5094600;27;45555;-80
2023/03/04 04:36:35;;;;;;;;;78.00;57.75;;;;;7.16;60.78;99589.81;5095376;27;46105;-80
2023/03/04 04:39:00;;;;;;;;;63.00;49.50;;;;;7.15;60.60;99594.19;5094785;27;45400;-80
2023/03/04 04:41:35;;;;;;;;;75.50;56.00;;;;;7.17;60.70;99589.78;5094800;27;45434;-80
2023/03/04 04:44:00;;;;;;;;;80.00;60.00;;;;;7.18;60.49;99590.63;5094676;27;45386;-79
2023/03/04 04:46:25;;;;;;;;;78.50;57.75;;;;;7.20;60.43;99597.59;5094655;27;45902;-78
2023/03/04 04:48:54;;;;;;;;;74.75;58.00;;;;;7.22;60.18;99590.53;5093225;27;45428;-78
2023/03/04 04:51:20;;;;;;;;;75.75;59.25;;;;;7.23;60.34;99591.41;5093379;27;45368;-79
2023/03/04 04:53:46;;;;;;;;;76.75;59.50;;;;;7.24;60.39;99587.88;5094776;27;45548;-80
2023/03/04 04:56:17;;;;;;;;;78.75;59.25;;;;;7.25;60.18;99590.47;5094475;27;46393;-80
2023/03/04 04:58:43;;;;;;;;;77.25;58.75;;;;;7.26;60.33;99594.81;5093510;27;45324;-79
2023/03/04 05:01:09;;;;;;;;;76.75;57.00;;;;;7.27;60.05;99585.19;5093492;27;45341;-79
2023/03/04 05:03:36;;;;;;;;;76.00;60.00;;;;;7.28;60.17;99585.19;5094695;27;45325;-79
2023/03/04 05:06:03;;;;;;;;;74.25;59.25;;;;;7.27;59.93;99580.81;5094684;27;45415;-80
2023/03/04 05:08:28;;;;;;;;;78.00;57.25;;;;;7.27;59.94;99591.31;5094428;27;45353;-79
2023/03/04 05:10:54;;;;;;;;;73.00;56.75;;;;;7.28;60.21;99592.19;5094655;27;45368;-79
2023/03/04 05:13:19;;;;;;;;;74.25;56.50;;;;;7.29;60.05;99586.03;5094701;27;45360;-79
2023/03/04 05:15:45;;;;;;;;;76.00;55.25;;;;;7.29;59.85;99586.91;5095815;27;46034;-79
2023/03/04 05:18:11;;;;;;;;;77.25;55.75;;;;;7.31;59.59;99590.38;5098203;27;45385;-79
2023/03/04 05:20:36;;;;;;;;;79.00;60.00;;;;;7.32;59.83;99593.84;5096536;27;45552;-79
2023/03/04 05:23:02;;;;;;;;;74.25;56.25;;;;;7.32;59.71;99599.97;5097958;27;45281;-79
2023/03/04 05:25:28;;;;;;;;;77.75;58.00;;;;;7.33;59.93;99592.97;5096337;27;46983;-79
2023/03/04 05:27:56;;;;;;;;;77.25;57.50;;;;;7.34;60.08;99603.44;5097364;27;45495;-80
2023/03/04 05:30:22;;;;;;;;;73.00;57.00;;;;;7.33;59.90;99596.44;5097539;27;45390;-79
2023/03/04 05:32:47;;;;;;;;;80.00;62.00;;;;;7.34;60.06;99606.06;5096120;27;45416;-79
2023/03/04 05:35:12;;;;;;;;;75.25;57.00;;;;;7.33;59.80;99599.06;5097432;27;45574;-79
2023/03/04 05:37:38;;;;;;;;;77.75;60.00;;;;;7.34;59.80;99608.66;5097479;27;45448;-79
2023/03/04 05:40:04;;;;;;;;;79.50;58.75;;;;;7.34;59.89;99600.81;5097655;27;45584;-79
2023/03/04 05:42:30;;;;;;;;;79.75;59.25;;;;;7.34;59.88;99607.81;5096493;27;45468;-79
2023/03/04 05:44:55;;;;;;;;;77.50;59.50;;;;;7.32;60.13;99609.59;5097186;27;46125;-80
2023/03/04 05:47:20;;;;;;;;;82.50;59.25;;;;;7.32;59.94;99610.47;5097626;27;45368;-80
2023/03/04 05:49:46;;;;;;;;;79.50;61.25;;;;;7.32;60.08;99607.84;5097759;27;45328;-79
2023/03/04 05:52:11;;;;;;;;;84.25;61.00;;;;;7.31;60.17;99607.88;5097531;27;45350;-80
2023/03/04 05:54:36;;;;;;;;;84.00;63.75;;;;;7.33;60.06;99609.56;5095802;27;46615;-79
2023/03/04 05:57:02;;;;;;;;;81.50;60.50;;;;;7.33;60.11;99601.69;5096181;27;45413;-79
2023/03/04 05:59:27;;;;;;;;;80.75;62.00;;;;;7.33;60.24;99601.69;5097049;27;45404;-79
2023/03/04 06:01:53;;;;;;;;;80.75;65.25;;;;;7.35;60.34;99607.78;5097098;27;45361;-80
2023/03/04 06:04:18;;;;;;;;;80.50;60.50;;;;;7.35;60.45;99605.16;5096565;27;45409;-79
2023/03/04 06:06:47;;;;;;;;;84.00;62.25;;;;;7.35;59.98;99607.78;5095481;27;45787;-79
2023/03/04 06:09:14;;;;;;;;;82.00;62.25;;;;;7.37;60.41;99614.75;5097639;27;45355;-79
2023/03/04 06:11:40;;;;;;;;;78.50;60.50;;;;;7.36;60.34;99616.50;5096679;27;45434;-79
2023/03/04 06:14:05;;;;;;;;;86.00;65.75;;;;;7.35;60.27;99617.41;5097079;27;45465;-79
2023/03/04 06:16:31;;;;;;;;;77.75;56.25;;;;;7.34;60.35;99615.69;5097041;27;45376;-80
2023/03/04 06:19:09;;;;;;;;;82.75;65.25;;;;;7.33;60.34;99627.06;5095690;27;45391;-80
2023/03/04 06:21:36;;;;;;;;;85.75;65.25;;;;;7.33;60.41;99621.81;5112337;27;45506;-78
2023/03/04 06:24:02;;;;;;;;;78.50;59.75;;;;;7.34;60.57;99621.78;5096864;27;46052;-79
2023/03/04 06:26:27;;;;;;;;;86.75;67.50;;;;;7.34;60.54;99626.16;5096300;27;45493;-80
2023/03/04 06:28:58;;;;;;;;;86.50;66.50;;;;;7.35;60.30;99628.75;5096585;27;45297;-80
2023/03/04 06:31:24;;;;;;;;;86.00;61.50;;;;;7.37;60.66;99635.75;5096923;27;45305;-80
2023/03/04 06:33:50;;;;;;;;;81.00;61.75;;;;;7.36;60.60;99629.63;5096452;27;45459;-79
2023/03/04 06:36:15;;;;;;;;;84.25;61.50;;;;;7.37;60.74;99630.50;5096675;27;45386;-79
2023/03/04 06:38:41;;;;;;;;;72.75;57.00;;;;;7.35;60.70;99626.13;5096844;27;45836;-80
2023/03/04 06:41:08;;;;;;;;;85.25;66.50;;;;;7.39;60.60;99637.41;5095873;27;45344;-80
2023/03/04 06:43:34;;;;;;;;;82.25;65.50;;;;;7.41;60.86;99638.25;5094741;27;48247;-79
2023/03/04 06:46:00;;;;;;;;;77.50;59.75;;;;;7.42;60.48;99637.34;5095989;27;45931;-80
2023/03/04 06:48:26;;;;;;;;;76.00;60.00;;;;;7.42;60.41;99639.13;5096294;27;45450;-80
2023/03/04 06:50:51;;;;;;;;;84.75;64.25;;;;;7.41;60.59;99634.75;5096045;27;45224;-79
2023/03/04 06:53:16;;;;;;;;;85.50;66.50;;;;;7.40;60.28;99640.91;5096133;27;45430;-79
2023/03/04 06:56:00;;;;;;;;;82.50;62.25;;;;;7.40;60.49;99646.16;5094495;27;45400;-80
2023/03/04 06:58:26;;;;;;;;;89.50;70.50;;;;;7.41;60.50;99650.50;5094400;27;45360;-80
2023/03/04 07:00:52;;;;;;;;;85.75;67.25;;;;;7.41;60.85;99648.75;5094993;27;45370;-80
2023/03/04 07:03:17;;;;;;;;;86.00;64.75;;;;;7.42;60.88;99647.84;5095388;27;46060;-80
2023/03/04 07:05:43;;;;;;;;;81.25;60.50;;;;;7.46;60.66;99651.28;5096015;27;45342;-79
2023/03/04 07:08:08;;;;;;;;;84.75;71.00;;;;;7.48;60.83;99654.75;5095913;27;45522;-80
2023/03/04 07:10:34;;;;;;;;;86.00;68.25;;;;;7.48;60.87;99655.63;5094219;27;45454;-79
2023/03/04 07:13:00;;;;;;;;;88.75;69.00;;;;;7.49;60.69;99661.72;5095634;27;46330;-80
2023/03/04 07:15:25;;;;;;;;;82.50;65.00;;;;;7.51;60.62;99647.69;5095337;27;45635;-79
2023/03/04 07:17:52;;;;;;;;;81.50;61.75;;;;;7.54;60.80;99657.28;5094771;27;45428;-80
2023/03/04 07:20:18;;;;;;;;;86.00;69.00;;;;;7.54;60.77;99652.84;5093093;27;45467;-80
2023/03/04 07:22:44;;;;;;;;;83.25;65.50;;;;;7.57;60.83;99658.06;5093457;27;47257;-80
2023/03/04 07:25:29;;;;;;;;;86.50;67.50;;;;;7.59;60.62;99658.88;5095102;27;45466;-80
2023/03/04 07:27:55;;;;;;;;;83.25;60.50;;;;;7.59;60.67;99656.25;5095037;27;45456;-80
2023/03/04 07:30:24;;;;;;;;;84.75;61.00;;;;;7.61;60.78;99664.97;5095919;27;45384;-79
2023/03/04 07:32:49;;;;;;;;;94.00;72.25;;;;;7.62;60.62;99671.09;5095496;27;45359;-80
2023/03/04 07:35:14;;;;;;;;;85.00;67.00;;;;;7.63;60.72;99663.19;5095763;27;45443;-79
2023/03/04 07:37:42;;;;;;;;;82.25;61.25;;;;;7.67;60.73;99664.00;5095736;27;45294;-80
2023/03/04 07:40:08;;;;;;;;;86.00;67.50;;;;;7.70;60.90;99663.94;5094459;27;45281;-79
2023/03/04 07:42:33;;;;;;;;;81.00;61.25;;;;;7.71;60.72;99670.91;5095538;27;45639;-79
2023/03/04 07:45:00;;;;;;;;;85.50;65.75;;;;;7.72;60.59;99672.63;5094104;27;45431;-80
2023/03/04 07:47:26;;;;;;;;;88.25;69.75;;;;;7.74;60.63;99673.47;5095351;27;45304;-80
2023/03/04 07:49:52;;;;;;;;;85.50;62.50;;;;;7.76;60.55;99671.69;5095495;27;45443;-79
2023/03/04 07:52:17;;;;;;;;;83.25;63.25;;;;;7.77;60.53;99670.78;5094172;27;47215;-80
2023/03/04 07:54:43;;;;;;;;;85.25;65.50;;;;;7.79;60.52;99673.38;5095282;27;45387;-79
2023/03/04 07:57:08;;;;;;;;;95.25;73.75;;;;;7.83;60.34;99677.69;5095615;27;45311;-79
2023/03/04 07:59:34;;;;;;;;;81.00;61.75;;;;;7.83;60.45;99672.44;5095006;27;45308;-81
2023/03/04 08:01:59;;;;;;;;;84.75;68.25;;;;;7.88;60.65;99674.03;5095082;27;46070;-80
2023/03/04 08:04:24;;;;;;;;;86.00;66.50;;;;;7.91;60.40;99676.63;5093967;27;45276;-81
2023/03/04 08:06:50;;;;;;;;;83.75;63.50;;;;;7.94;60.36;99680.94;5094474;27;45454;-81
2023/03/04 08:09:15;;;;;;;;;80.75;65.25;;;;;7.95;60.44;99685.31;5094660;27;45524;-80
2023/03/04 08:11:43;;;;;;;;;83.75;65.25;;;;;7.96;60.57;99680.03;5094607;27;45604;-80
2023/03/04 08:14:10;;;;;;;;;87.50;70.75;;;;;7.99;60.53;99686.97;5094802;27;45352;-80
2023/03/04 08:16:36;;;;;;;;;87.00;70.75;;;;;8.00;60.24;99689.56;5093083;27;45438;-80
2023/03/04 08:19:03;;;;;;;;;88.25;66.25;;;;;8.02;60.18;99690.41;5094557;27;45558;-80
2023/03/04 08:21:29;;;;;;;;;85.25;67.25;;;;;8.04;60.18;99687.75;5094668;27;45416;-80
2023/03/04 08:23:58;;;;;;;;;81.75;63.50;;;;;8.06;60.23;99691.19;5093759;27;45411;-80
2023/03/04 08:26:27;;;;;;;;;83.00;65.75;;;;;8.08;60.19;99694.66;5094677;27;45497;-80
2023/03/04 08:28:53;;;;;;;;;87.25;69.50;;;;;8.08;60.09;99694.66;5094886;27;45364;-80
2023/03/04 08:31:19;;;;;;;;;81.25;64.25;;;;;8.10;60.17;99690.22;5092993;27;47255;-80
2023/03/04 08:33:45;;;;;;;;;85.00;66.50;;;;;8.11;60.19;99689.34;5095419;27;45524;-80
2023/03/04 08:36:12;;;;;;;;;84.00;66.50;;;;;8.16;60.04;99689.25;5094741;27;45438;-80
2023/03/04 08:38:37;;;;;;;;;82.50;64.00;;;;;8.19;60.34;99692.69;5094145;27;45520;-80
2023/03/04 08:41:03;;;;;;;;;84.75;64.00;;;;;8.22;60.08;99692.59;5093361;27;46616;-80
2023/03/04 08:43:32;;;;;;;;;82.50;64.75;;;;;8.26;60.20;99689.00;5092515;27;45441;-79
2023/03/04 08:45:57;;;;;;;;;94.50;74.00;;;;;8.27;59.95;99692.50;5092702;27;45451;-80
2023/03/04 08:48:23;;;;;;;;;82.50;68.00;;;;;8.27;60.05;99692.50;5093739;27;45307;-80
2023/03/04 08:50:49;;;;;;;;;81.75;65.50;;;;;8.29;59.88;99701.22;5094046;27;47305;-80
2023/03/04 08:53:15;;;;;;;;;82.00;63.50;;;;;8.25;59.76;99695.16;5096634;27;45345;-79
2023/03/04 08:55:42;;;;;;;;;85.25;68.50;;;;;8.25;60.17;99697.78;5098346;27;45430;-80
2023/03/04 08:58:17;;;;;;;;;88.25;65.50;;;;;8.27;60.09;99703.00;5097831;27;45396;-80
2023/03/04 09:00:47;;;;;;;;;82.00;66.75;;;;;8.32;59.92;99703.81;5097528;27;45444;-79
2023/03/04 09:03:12;;;;;;;;;85.00;69.25;;;;;8.33;59.88;99695.91;5097545;27;45351;-80
2023/03/04 09:05:38;;;;;;;;;88.75;78.00;;;;;8.36;60.00;99695.84;5098284;27;45412;-80
2023/03/04 09:08:04;;;;;;;;;83.00;60.75;;;;;8.39;59.64;99698.38;5097757;27;45559;-78
2023/03/04 09:10:29;;;;;;;;;85.75;66.25;;;;;8.45;59.82;99700.00;5097246;27;48226;-80
2023/03/04 09:12:54;;;;;;;;;86.00;70.25;;;;;8.49;59.70;99698.19;5097669;27;45333;-79
2023/03/04 09:15:20;;;;;;;;;85.00;69.25;;;;;8.54;59.70;99696.34;5097372;27;45325;-78
2023/03/04 09:17:45;;;;;;;;;75.75;57.75;;;;;8.58;59.62;99697.97;5097581;27;45519;-78
2023/03/04 09:20:12;;;;;;;;;82.25;64.75;;;;;8.61;59.41;99703.16;5097269;27;46428;-80
2023/03/04 09:22:39;;;;;;;;;86.75;70.00;;;;;8.65;59.27;99703.06;5097266;27;45570;-79
2023/03/04 09:25:14;;;;;;;;;88.25;69.50;;;;;8.70;59.40;99697.72;5096884;27;45430;-79
2023/03/04 09:27:42;;;;;;;;;89.50;72.25;;;;;8.73;59.23;99698.47;5097593;27;45426;-80
2023/03/04 09:30:14;;;;;;;;;84.50;66.75;;;;;8.78;59.13;99700.13;5095737;27;47505;-78
2023/03/04 09:32:40;;;;;;;;;88.00;72.50;;;;;8.83;59.45;99701.78;5097099;27;45490;-79
2023/03/04 09:35:06;;;;;;;;;84.75;64.50;;;;;8.86;59.30;99699.06;5097300;27;45444;-80
2023/03/04 09:37:32;;;;;;;;;90.50;74.50;;;;;8.90;58.86;99699.84;5097024;27;45420;-80
2023/03/04 09:39:57;;;;;;;;;87.25;68.75;;;;;8.90;59.01;99695.44;5095293;27;46432;-81
2023/03/04 09:42:33;;;;;;;;;85.75;66.25;;;;;8.93;58.93;99695.38;5096856;27;45334;-80
2023/03/04 09:44:59;;;;;;;;;83.50;64.50;;;;;8.96;59.17;99697.94;5096927;27;45291;-80
2023/03/04 09:47:25;;;;;;;;;84.50;67.75;;;;;8.97;58.79;99694.41;5096876;27;45384;-80
2023/03/04 09:50:01;;;;;;;;;84.00;65.25;;;;;8.99;58.66;99692.59;5096255;27;46323;-80
2023/03/04 09:53:01;;;;;;;;;85.75;71.75;;;;;9.05;58.78;99694.19;5082271;27;45586;-80
2023/03/04 09:55:43;;;;;;;;;89.50;76.50;;;;;9.06;58.81;99691.53;5096454;27;45352;-79
2023/03/04 09:58:17;;;;;;;;;84.75;66.50;;;;;9.11;58.72;99694.06;5095956;27;45511;-79
2023/03/04 10:00:54;;;;;;;;;84.75;73.50;;;;;9.16;58.41;99696.59;5095834;27;46403;-79
2023/03/04 10:03:24;;;;;;;;;84.25;62.50;;;;;9.18;58.63;99690.38;5094705;27;45445;-79
2023/03/04 10:06:02;;;;;;;;;86.50;72.25;;;;;9.20;58.65;99687.72;5096343;27;45476;-79
2023/03/04 10:08:40;;;;;;;;;82.25;64.75;;;;;9.23;58.43;99682.34;5095683;27;45444;-79
2023/03/04 10:11:13;;;;;;;;;83.75;67.25;;;;;9.26;58.25;99677.03;5095294;27;45654;-79
2023/03/04 10:14:03;;;;;;;;;74.50;60.50;;;;;9.29;58.27;99677.81;5083140;27;45463;-82
2023/03/04 10:16:55;;;;;;;;;85.25;71.00;;;;;9.33;57.93;99682.09;5096549;27;45315;-80
2023/03/04 10:19:33;;;;;;;;;84.75;74.25;;;;;9.37;57.95;99673.22;5066850;27;45409;-80
2023/03/04 10:22:34;;;;;;;;;85.75;70.00;;;;;9.43;57.88;99678.31;5096302;27;46248;-80
2023/03/04 10:25:29;;;;;;;;;87.00;70.25;;;;;9.49;57.43;99674.66;5083209;27;45422;-80
2023/03/04 10:28:13;;;;;;;;;84.00;64.25;;;;;9.53;57.41;99667.56;5089704;27;45482;-80
2023/03/04 10:31:03;;;;;;;;;84.50;64.50;;;;;9.55;57.18;99666.56;5096313;27;45509;-80
2023/03/04 10:33:35;;;;;;;;;87.25;73.00;;;;;9.60;57.25;99669.97;5095942;27;45368;-80
2023/03/04 10:36:28;;;;;;;;;80.75;62.25;;;;;9.67;56.96;99663.63;5096366;27;45320;-80
2023/03/04 10:39:01;;;;;;;;;82.00;65.50;;;;;9.73;56.75;99662.56;5094773;27;45425;-80
2023/03/04 10:41:31;;;;;;;;;82.00;64.25;;;;;9.74;56.67;99664.31;5095886;27;45443;-80
2023/03/04 10:44:08;;;;;;;;;81.25;65.00;;;;;9.82;56.62;99664.97;5093820;27;47306;-80
2023/03/04 10:46:46;;;;;;;;;84.75;67.25;;;;;9.92;56.26;99666.41;5094126;27;45431;-80
2023/03/04 10:49:18;;;;;;;;;83.50;65.75;;;;;10.02;56.38;99662.63;5095409;27;45469;-80
2023/03/04 10:51:50;;;;;;;;;83.50;67.25;;;;;10.12;55.91;99660.56;5095558;27;45481;-79
2023/03/04 10:54:30;;;;;;;;;85.25;70.25;;;;;10.20;55.70;99665.66;5095750;27;46329;-79
2023/03/04 10:56:57;;;;;;;;;74.25;59.50;;;;;10.26;55.71;99658.41;5095963;27;45295;-80
2023/03/04 10:59:52;;;;;;;;;83.25;64.50;;;;;10.37;55.25;99663.38;5094049;27;45536;-80
2023/03/04 11:02:36;;;;;;;;;82.25;66.00;;;;;10.45;55.09;99661.34;5081250;27;45609;-80
2023/03/04 11:05:13;;;;;;;;;79.25;58.50;;;;;10.51;55.09;99662.94;5095210;27;45587;-80
2023/03/04 11:07:45;;;;;;;;;78.75;66.00;;;;;10.58;54.86;99651.28;5093757;27;45474;-81
2023/03/04 11:10:21;;;;;;;;;77.50;60.75;;;;;10.61;54.52;99659.09;5095493;27;45506;-81
2023/03/04 11:13:10;;;;;;;;;81.00;62.25;;;;;10.65;54.39;99652.84;5095589;27;45455;-80
2023/03/04 11:16:00;;;;;;;;;86.00;72.25;;;;;10.66;54.36;99646.66;5093495;27;46329;-79
2023/03/04 11:18:40;;;;;;;;;77.00;60.00;;;;;10.67;54.04;99651.00;5080273;27;45393;-80
2023/03/04 11:21:06;;;;;;;;;81.75;65.25;;;;;10.75;54.12;99647.19;5094964;27;45442;-80
2023/03/04 11:23:38;;;;;;;;;77.75;59.00;;;;;10.79;53.41;99643.56;5095193;27;45516;-81
2023/03/04 11:26:15;;;;;;;;;73.75;55.75;;;;;10.82;53.11;99640.81;5094030;27;45509;-80
2023/03/04 11:29:09;;;;;;;;;78.25;62.00;;;;;10.88;53.17;99637.13;5093709;27;45375;-80
2023/03/04 11:31:47;;;;;;;;;74.25;60.00;;;;;10.94;52.92;99636.91;5083252;27;45376;-81